Meteo Giornale » Osservazioni meteo Stati Uniti (USA) » International Falls
ore: 23:54 - Osservazioni Meteo International Falls
Lat. 48° 33' N Lon. 93° 23' W Alt. 361 metri s.l.m.
19 °C
Sereno
Temp. 24 Ore
18 °C
26 °C
Nord
11.1 Km/h
Dew point 12 °C
Umidità 63 %
Visibilità 10 Km
Il sole sorge alle ore 06:31
Il sole tramonta alle ore 19:55
| Data e Ora | Cielo e Fenomeni | T °C | DP °C | Um. % | Pres. hPa | Vis. km | Vento km/h | |
|---|---|---|---|---|---|---|---|---|
| Ieri h: 23:54 | Sereno | 19 | 12 | 63 | 1009 | 10 | N 11.1 | |
| Ieri h: 22:54 | Sereno | 19 | 13 | 68 | 1009 | 10 | N 9.3 | |
| Ieri h: 21:54 | Sereno | 19 | 13 | 68 | 1009 | 10 | N 5.5 | |
| Ieri h: 20:54 | Sereno | 18 | 13 | 72 | 1009 | 10 | N 0 | |
| Ieri h: 19:54 | Sereno | 20 | 13 | 64 | 1008 | 10 | N 0 | |
| Ieri h: 18:54 | Sereno | 24 | 12 | 47 | 1009 | 10 | N 5.5 | |
| Ieri h: 17:54 | Sereno | 26 | 12 | 41 | 1009 | 10 | O/SO 11.1 | |
| Ieri h: 16:54 | Sereno | 26 | 16 | 54 | 1008 | 10 | N 5.5 | |
| Ieri h: 15:54 | Sereno | 26 | 13 | 44 | 1009 | 10 | O 11.1 | |
| Ieri h: 14:54 | Sereno | 26 | 15 | 50 | 1009 | 10 | N 9.3 | |
| Ieri h: 13:54 | Poco Nuvoloso | 26 | 16 | 54 | 1009 | 10 | O/SO 14.8 | |
| Ieri h: 12:54 | Sereno | 25 | 17 | 61 | 1009 | 10 | O 16.7 | |
| Ieri h: 12:10 | Nuvoloso | 24 | 18 | 69 | 1009 | 10 | O/SO 13 | |
| Ieri h: 11:54 | Molto Nuvoloso | 24 | 18 | 69 | 1008 | 10 | O/SO 14.8 | |
| Ieri h: 11:36 | Molto Nuvoloso | 24 | 19 | 73 | 1008 | 10 | O/SO 13 | |
| Ieri h: 10:54 | Nuvoloso | 23 | 19 | 78 | 1008 | 10 | O 18.5 | |
| Ieri h: 10:45 | Nuvoloso | 23 | 19 | 78 | 1008 | 10 | O/SO 14.8 | |
| Ieri h: 10:28 | Molto Nuvoloso | 22 | 20 | 88 | 1008 | 10 | O 11.1 | |
| Ieri h: 09:54 | Coperto | 21 | 20 | 94 | 1008 | 13 | N 11.1 | |
| Ieri h: 09:09 | Foschia | 20 | 19 | 93 | 1008 | 6 | N 5.5 | |
| Ieri h: 08:54 | Foschia | 20 | 19 | 93 | 1008 | 6 | N 7.4 | |
| Ieri h: 08:03 | Coperto | 19 | 19 | 100 | 1008 | 13 | N 5.5 | |
| Ieri h: 07:54 | Coperto | 19 | 18 | 93 | 1007 | 10 | N 5.5 | |
| Ieri h: 06:54 | Coperto | 18 | 18 | 100 | 1007 | 10 | SE 7.4 | |
| Ieri h: 06:34 | Coperto | 18 | 18 | 100 | 1007 | 10 | N 5.5 | |
| Ieri h: 05:54 | Coperto | 18 | 17 | 93 | 1007 | 14 | SE 11.1 | |
| Ieri h: 05:46 | Coperto | 18 | 17 | 93 | 1007 | 10 | SE 9.3 | |
| Ieri h: 04:54 | Coperto | 18 | 17 | 93 | 1007 | 10 | E/SE 14.8 | |
| Ieri h: 04:33 | Coperto | 18 | 17 | 93 | 1006 | 10 | E/SE 14.8 | |
| Ieri h: 04:26 | Coperto | 18 | 17 | 93 | 1007 | 10 | E/SE 14.8 | |
| Ieri h: 04:05 | Pioggia Foschia | 18 | 17 | 93 | 1007 | 8 | E/SE 11.1 | |
| Ieri h: 03:54 | Temporale nelle vicinanze Pioggia | 18 | 17 | 93 | 1008 | 10 | N 0 | |
| Ieri h: 03:50 | Temporale nelle vicinanze Pioggia | 18 | 17 | 93 | 1008 | 8 | O/NO 13 | |
| Ieri h: 03:43 | Temporale nelle vicinanze Pioggia | 18 | 17 | 93 | 1008 | 2 | N 5.5 | |
| Ieri h: 03:35 | Temporale nelle vicinanze Pioggia | 18 | 17 | 93 | 1007 | 5 | SE 13 | |
| Ieri h: 02:54 | Coperto | 19 | 17 | 88 | 1007 | 10 | SE 18.5 | |
| Ieri h: 01:54 | Coperto | 19 | 17 | 88 | 1008 | 10 | SE 16.7 | |
| Ieri h: 01:50 | Coperto | 19 | 17 | 88 | 1007 | 10 | SE 18.5 | |
| Ieri h: 00:54 | Coperto | 19 | 16 | 82 | 1008 | 10 | E/SE 20.3 | |



